Time;durP1;ratioP1;P1;durP2;ratioP2;P2;SDS_P1;SDS_P2;PMS_P1;PMS_P2;Temp;Humidity;BMP_temperature;BMP_pressure;BME280_temperature;BME280_humidity;BME280_pressure;Samples;Min_cycle;Max_cycle;Signal;HPM_P1;HPM_P2
2024/01/15 00:02:17;;;;;;;5.63;1.77;;;;;;;;;;6089945;23;20468;-78
2024/01/15 00:04:51;;;;;;;4.97;2.17;;;;;;;;;;6088013;23;20027;-79
2024/01/15 00:07:18;;;;;;;3.85;1.70;;;;;;;;;;6088423;23;20022;-77
2024/01/15 00:09:52;;;;;;;6.95;2.25;;;;;;;;;;6088757;23;20050;-78
2024/01/15 00:12:19;;;;;;;3.83;1.70;;;;;;;;;;6091004;23;20022;-79
2024/01/15 00:14:46;;;;;;;3.30;1.90;;;;;;;;;;6090625;23;20037;-78
2024/01/15 00:17:33;;;;;;;4.60;1.88;;;;;;;;;;6087338;23;20042;-78
2024/01/15 00:20:01;;;;;;;3.92;2.17;;;;;;;;;;6088671;23;20311;-79
2024/01/15 00:22:35;;;;;;;3.70;2.30;;;;;;;;;;6088404;23;20053;-78
2024/01/15 00:25:03;;;;;;;4.55;2.33;;;;;;;;;;6089617;23;20102;-78
2024/01/15 00:27:30;;;;;;;4.00;2.17;;;;;;;;;;6090230;23;20034;-78
2024/01/15 00:30:04;;;;;;;3.25;2.05;;;;;;;;;;6086443;23;20416;-78
2024/01/15 00:32:32;;;;;;;2.17;1.50;;;;;;;;;;6087056;23;20062;-78
2024/01/15 00:35:06;;;;;;;2.20;1.17;;;;;;;;;;6088315;23;20022;-77
2024/01/15 00:37:33;;;;;;;;;;;;;;;;;;6086685;23;20520;-77
2024/01/15 00:40:01;;;;;;;2.28;1.42;;;;;;;;;;6086105;23;20470;-78
2024/01/15 00:42:35;;;;;;;2.60;1.60;;;;;;;;;;6086602;23;20030;-77
2024/01/15 00:45:02;;;;;;;;;;;;;;;;;;6089701;23;20098;-77
2024/01/15 00:47:36;;;;;;;2.40;1.55;;;;;;;;;;6087499;23;19921;-77
2024/01/15 00:50:03;;;;;;;2.70;1.27;;;;;;;;;;6087820;23;20030;-77
2024/01/15 00:52:31;;;;;;;2.35;1.23;;;;;;;;;;6089375;23;20022;-76
2024/01/15 00:55:05;;;;;;;2.35;1.70;;;;;;;;;;6088834;23;20027;-76
2024/01/15 00:57:32;;;;;;;;;;;;;;;;;;6089427;23;20315;-76
2024/01/15 01:00:08;;;;;;;1.08;0.95;;;;;;;;;;6087129;23;19928;-77
2024/01/15 01:02:35;;;;;;;5.85;1.05;;;;;;;;;;6083371;23;20404;-77
2024/01/15 01:05:03;;;;;;;;;;;;;;;;;;6087762;23;20033;-77
2024/01/15 01:07:37;;;;;;;0.85;0.85;;;;;;;;;;6088862;23;19921;-77
2024/01/15 01:10:04;;;;;;;1.63;0.80;;;;;;;;;;6085552;23;20038;-77
2024/01/15 01:12:38;;;;;;;1.50;0.70;;;;;;;;;;6087071;23;20097;-80
2024/01/15 01:15:05;;;;;;;;;;;;;;;;;;6087860;23;20074;-79
2024/01/15 01:17:33;;;;;;;0.95;0.63;;;;;;;;;;6087337;23;19988;-79
2024/01/15 01:20:09;;;;;;;1.52;0.95;;;;;;;;;;6084110;23;20459;-80
2024/01/15 01:22:37;;;;;;;2.08;1.10;;;;;;;;;;6085072;23;20037;-79
2024/01/15 01:25:11;;;;;;;1.35;1.10;;;;;;;;;;6087955;23;20026;-79
2024/01/15 01:27:38;;;;;;;2.38;1.30;;;;;;;;;;6088411;23;20034;-79
2024/01/15 01:30:05;;;;;;;;;;;;;;;;;;6088244;23;20026;-79
2024/01/15 01:32:40;;;;;;;3.20;1.13;;;;;;;;;;6087048;23;19925;-79
2024/01/15 01:35:07;;;;;;;3.60;1.30;;;;;;;;;;6088167;23;20030;-80
2024/01/15 01:37:43;;;;;;;8.85;3.58;;;;;;;;;;6089544;23;20112;-80
2024/01/15 01:40:10;;;;;;;2.35;1.02;;;;;;;;;;6089916;23;20081;-79
2024/01/15 01:42:37;;;;;;;13.80;1.58;;;;;;;;;;6089057;23;20048;-80
2024/01/15 01:45:11;;;;;;;5.70;1.40;;;;;;;;;;6089776;23;20037;-80
2024/01/15 01:47:39;;;;;;;1.90;1.10;;;;;;;;;;6090742;23;20077;-79
2024/01/15 01:50:13;;;;;;;12.45;1.30;;;;;;;;;;6088523;23;20236;-79
2024/01/15 01:52:41;;;;;;;15.05;1.23;;;;;;;;;;6090970;23;20027;-80
2024/01/15 01:55:09;;;;;;;1.90;0.80;;;;;;;;;;6090147;23;20056;-79
2024/01/15 01:57:44;;;;;;;0.73;0.68;;;;;;;;;;6089818;23;20027;-80
2024/01/15 02:00:12;;;;;;;0.82;0.82;;;;;;;;;;6088463;23;20025;-80
2024/01/15 02:02:46;;;;;;;2.63;1.15;;;;;;;;;;6088633;23;20054;-79
2024/01/15 02:05:14;;;;;;;1.88;1.27;;;;;;;;;;6091712;23;20018;-80
2024/01/15 02:07:43;;;;;;;12.30;1.25;;;;;;;;;;6092173;23;20443;-79
2024/01/15 02:10:17;;;;;;;5.50;1.75;;;;;;;;;;6091432;23;20081;-79
2024/01/15 02:12:44;;;;;;;;;;;;;;;;;;6092471;23;20060;-79
2024/01/15 02:15:18;;;;;;;12.32;1.58;;;;;;;;;;6090123;23;19921;-79
2024/01/15 02:17:45;;;;;;;;;;;;;;;;;;6090580;23;20027;-79
2024/01/15 02:20:18;;;;;;;1.45;1.23;;;;;;;;;;6089407;23;19925;-79
2024/01/15 02:22:52;;;;;;;1.15;0.93;;;;;;;;;;6091571;23;20034;-80
2024/01/15 02:25:19;;;;;;;2.65;1.10;;;;;;;;;;6091204;23;20030;-79
2024/01/15 02:27:53;;;;;;;1.05;0.95;;;;;;;;;;6089323;23;20046;-80
2024/01/15 02:30:21;;;;;;;2.35;1.38;;;;;;;;;;6086458;23;20102;-80
2024/01/15 02:32:55;;;;;;;3.20;1.17;;;;;;;;;;6085711;23;20591;-79
2024/01/15 02:35:22;;;;;;;;;;;;;;;;;;6090355;23;20090;-80
2024/01/15 02:37:56;;;;;;;10.82;1.20;;;;;;;;;;6089191;23;20321;-79
2024/01/15 02:40:24;;;;;;;1.48;1.02;;;;;;;;;;6088410;23;20030;-79
2024/01/15 02:42:51;;;;;;;;;;;;;;;;;;6090361;23;20389;-80
2024/01/15 02:45:27;;;;;;;4.18;1.30;;;;;;;;;;6090476;23;19989;-80
2024/01/15 02:47:55;;;;;;;2.13;1.13;;;;;;;;;;6087587;23;20030;-80
2024/01/15 02:50:22;;;;;;;;;;;;;;;;;;6088203;23;20408;-80
2024/01/15 02:52:56;;;;;;;2.53;1.20;;;;;;;;;;6089674;23;19925;-80
2024/01/15 02:55:23;;;;;;;2.42;0.90;;;;;;;;;;6089738;23;20326;-80
2024/01/15 02:57:57;;;;;;;5.82;1.83;;;;;;;;;;6087892;23;20409;-80
2024/01/15 03:00:27;;;;;;;22.63;2.40;;;;;;;;;;6089196;23;20030;-80
2024/01/15 03:02:54;;;;;;;6.30;1.10;;;;;;;;;;6088330;23;20026;-80
2024/01/15 03:05:29;;;;;;;4.63;0.90;;;;;;;;;;6087753;23;20026;-80
2024/01/15 03:07:56;;;;;;;2.50;1.00;;;;;;;;;;6088930;23;20098;-79
2024/01/15 03:10:23;;;;;;;2.03;0.80;;;;;;;;;;6090089;23;20400;-80
2024/01/15 03:12:57;;;;;;;2.53;1.13;;;;;;;;;;6088155;23;20312;-80
2024/01/15 03:15:25;;;;;;;9.65;1.40;;;;;;;;;;6089442;23;20424;-80
2024/01/15 03:18:05;;;;;;;6.82;1.52;;;;;;;;;;6088764;23;20093;-81
2024/01/15 03:20:33;;;;;;;2.45;1.08;;;;;;;;;;6088581;23;20072;-80
2024/01/15 03:23:07;;;;;;;1.48;1.05;;;;;;;;;;6089848;23;20038;-80
2024/01/15 03:25:34;;;;;;;;;;;;;;;;;;6090070;23;20030;-80
2024/01/15 03:28:01;;;;;;;31.58;2.42;;;;;;;;;;6086583;23;20339;-80
2024/01/15 03:30:35;;;;;;;3.72;1.70;;;;;;;;;;6088941;23;20324;-79
2024/01/15 03:33:02;;;;;;;3.50;1.80;;;;;;;;;;6087425;23;20401;-80
2024/01/15 03:35:36;;;;;;;16.58;1.65;;;;;;;;;;6088761;23;20037;-80
2024/01/15 03:38:03;;;;;;;2.03;0.85;;;;;;;;;;6088722;23;20022;-80
2024/01/15 03:40:30;;;;;;;;;;;;;;;;;;6089212;23;20022;-80
2024/01/15 03:43:05;;;;;;;1.35;0.90;;;;;;;;;;6089208;23;20126;-80
2024/01/15 03:45:32;;;;;;;8.38;2.38;;;;;;;;;;6088166;23;20595;-80
2024/01/15 03:47:59;;;;;;;2.03;1.00;;;;;;;;;;6088873;23;20030;-80
2024/01/15 03:50:33;;;;;;;0.88;0.70;;;;;;;;;;6089414;23;20037;-80
2024/01/15 03:53:00;;;;;;;1.42;0.73;;;;;;;;;;6089177;23;20026;-80
2024/01/15 03:55:34;;;;;;;12.38;1.17;;;;;;;;;;6089365;23;20038;-80
2024/01/15 03:58:01;;;;;;;1.85;1.02;;;;;;;;;;6088543;23;20129;-80
2024/01/15 04:00:28;;;;;;;53.80;3.05;;;;;;;;;;6088092;23;20023;-80
2024/01/15 04:03:02;;;;;;;2.33;0.85;;;;;;;;;;6089508;23;20085;-80
2024/01/15 04:05:29;;;;;;;5.40;1.55;;;;;;;;;;6088052;23;20022;-80
2024/01/15 04:08:03;;;;;;;5.55;1.40;;;;;;;;;;6089828;23;20037;-80
2024/01/15 04:10:31;;;;;;;1.75;1.10;;;;;;;;;;6088239;23;20121;-80
2024/01/15 04:12:59;;;;;;;0.82;0.70;;;;;;;;;;6086743;23;20033;-81
2024/01/15 04:15:33;;;;;;;4.05;1.00;;;;;;;;;;6088870;23;20033;-80
2024/01/15 04:18:01;;;;;;;;;;;;;;;;;;6089955;23;20058;-80
2024/01/15 04:20:41;;;;;;;7.43;0.98;;;;;;;;;;6086399;23;19928;-80
2024/01/15 04:23:16;;;;;;;2.08;0.85;;;;;;;;;;6089230;23;20027;-79
2024/01/15 04:25:50;;;;;;;2.25;1.00;;;;;;;;;;6088962;23;20030;-80
2024/01/15 04:28:17;;;;;;;;;;;;;;;;;;6086220;23;20097;-79
2024/01/15 04:30:44;;;;;;;1.70;1.13;;;;;;;;;;6089000;23;19918;-80
2024/01/15 04:33:18;;;;;;;4.13;1.17;;;;;;;;;;6089226;23;20026;-80
2024/01/15 04:35:45;;;;;;;1.40;1.08;;;;;;;;;;6087240;23;20495;-80
2024/01/15 04:38:19;;;;;;;5.95;1.08;;;;;;;;;;6086218;23;20026;-80
2024/01/15 04:40:46;;;;;;;;;;;;;;;;;;6089096;23;20022;-79
2024/01/15 04:43:13;;;;;;;3.40;0.85;;;;;;;;;;6087246;23;19925;-79
2024/01/15 04:45:47;;;;;;;1.55;0.90;;;;;;;;;;6088590;23;20030;-80
2024/01/15 04:48:14;;;;;;;2.35;1.08;;;;;;;;;;6086383;23;20026;-80
2024/01/15 04:50:48;;;;;;;18.58;1.48;;;;;;;;;;6088479;23;20109;-80
2024/01/15 04:53:15;;;;;;;1.30;0.93;;;;;;;;;;6087988;23;20026;-81
2024/01/15 04:55:42;;;;;;;3.00;1.00;;;;;;;;;;6085151;23;20029;-81
2024/01/15 04:58:17;;;;;;;4.35;1.20;;;;;;;;;;6086223;23;20523;-80
2024/01/15 05:00:44;;;;;;;3.10;1.25;;;;;;;;;;6086935;23;20405;-80
2024/01/15 05:03:11;;;;;;;;;;;;;;;;;;6089149;23;20537;-80
2024/01/15 05:05:45;;;;;;;8.27;1.42;;;;;;;;;;6089079;23;19921;-80
2024/01/15 05:08:12;;;;;;;4.38;1.13;;;;;;;;;;6086587;23;20026;-80
2024/01/15 05:10:46;;;;;;;2.15;1.13;;;;;;;;;;6089799;23;20057;-80
2024/01/15 05:13:13;;;;;;;3.78;1.23;;;;;;;;;;6088521;23;20026;-79
2024/01/15 05:15:40;;;;;;;;;;;;;;;;;;6090223;23;20059;-80
2024/01/15 05:18:21;;;;;;;4.53;0.98;;;;;;;;;;6089278;23;19921;-80
2024/01/15 05:20:49;;;;;;;1.73;1.00;;;;;;;;;;6088125;23;20460;-80
2024/01/15 05:23:23;;;;;;;2.17;1.00;;;;;;;;;;6086721;23;20026;-80
2024/01/15 05:25:50;;;;;;;;;;;;;;;;;;6089490;23;20023;-80
2024/01/15 05:28:18;;;;;;;0.98;0.70;;;;;;;;;;6089980;23;20078;-80
2024/01/15 05:30:52;;;;;;;1.75;1.10;;;;;;;;;;6089367;23;20093;-81
2024/01/15 05:33:20;;;;;;;2.17;1.08;;;;;;;;;;6088143;23;20468;-80
2024/01/15 05:36:01;;;;;;;3.63;1.23;;;;;;;;;;6085628;23;20031;-80
2024/01/15 05:38:28;;;;;;;3.75;0.90;;;;;;;;;;6086433;23;20364;-80
2024/01/15 05:41:02;;;;;;;2.63;0.90;;;;;;;;;;6089671;23;20090;-80
2024/01/15 05:43:29;;;;;;;;;;;;;;;;;;6087933;23;20022;-79
2024/01/15 05:45:56;;;;;;;4.43;1.07;;;;;;;;;;6086348;23;20307;-81
2024/01/15 05:48:30;;;;;;;3.73;1.27;;;;;;;;;;6088803;23;20369;-80
2024/01/15 05:50:57;;;;;;;3.20;1.20;;;;;;;;;;6087894;23;20300;-81
2024/01/15 05:53:32;;;;;;;2.30;1.43;;;;;;;;;;6088591;23;20027;-80
2024/01/15 05:56:01;;;;;;;5.57;0.70;;;;;;;;;;6092166;23;20103;-80
2024/01/15 05:58:28;;;;;;;2.63;1.13;;;;;;;;;;6091973;23;20026;-80
2024/01/15 06:01:02;;;;;;;2.90;0.90;;;;;;;;;;6091312;23;20081;-81
2024/01/15 06:03:29;;;;;;;18.60;1.83;;;;;;;;;;6092132;23;20023;-80
2024/01/15 06:06:03;;;;;;;5.30;1.00;;;;;;;;;;6090566;23;20032;-80
2024/01/15 06:08:30;;;;;;;2.00;1.13;;;;;;;;;;6090166;23;20629;-80
2024/01/15 06:10:58;;;;;;;4.68;1.50;;;;;;;;;;6091181;23;20105;-80
2024/01/15 06:13:32;;;;;;;5.97;1.10;;;;;;;;;;6091467;23;20026;-80
2024/01/15 06:15:59;;;;;;;;;;;;;;;;;;6090957;23;20086;-81
2024/01/15 06:18:39;;;;;;;4.65;1.00;;;;;;;;;;6090973;23;19921;-80
2024/01/15 06:21:07;;;;;;;4.33;1.10;;;;;;;;;;6091280;23;20460;-81
2024/01/15 06:23:41;;;;;;;3.70;1.10;;;;;;;;;;6092666;23;20061;-81
2024/01/15 06:26:16;;;;;;;2.10;1.17;;;;;;;;;;6090146;23;20030;-80
2024/01/15 06:28:50;;;;;;;1.33;1.03;;;;;;;;;;6090152;23;20026;-81
2024/01/15 06:31:23;;;;;;;5.73;1.57;;;;;;;;;;6088563;23;20026;-80
2024/01/15 06:33:58;;;;;;;7.67;1.10;;;;;;;;;;6090881;23;20030;-81
2024/01/15 06:36:26;;;;;;;2.13;1.00;;;;;;;;;;6090057;23;20069;-81
2024/01/15 06:38:53;;;;;;;;;;;;;;;;;;6090729;23;20057;-80
2024/01/15 06:41:27;;;;;;;2.03;1.30;;;;;;;;;;6090887;23;19918;-80
2024/01/15 06:43:55;;;;;;;;;;;;;;;;;;6089407;23;20476;-81
2024/01/15 06:46:29;;;;;;;3.27;1.10;;;;;;;;;;6091321;23;19921;-80
2024/01/15 06:48:56;;;;;;;;;;;;;;;;;;6090755;23;20027;-81
2024/01/15 06:51:24;;;;;;;4.50;1.30;;;;;;;;;;6090268;23;19925;-81
2024/01/15 06:53:58;;;;;;;2.00;1.17;;;;;;;;;;6089763;23;20029;-80
2024/01/15 06:56:25;;;;;;;;;;;;;;;;;;6088521;23;20539;-80
2024/01/15 06:58:52;;;;;;;4.53;1.20;;;;;;;;;;6089099;23;20339;-80
2024/01/15 07:01:26;;;;;;;1.90;1.27;;;;;;;;;;6089455;23;20022;-80
2024/01/15 07:03:53;;;;;;;3.57;1.23;;;;;;;;;;6090537;23;20396;-81
2024/01/15 07:06:27;;;;;;;6.07;1.57;;;;;;;;;;6091583;23;20026;-80
2024/01/15 07:08:54;;;;;;;1.30;1.00;;;;;;;;;;6090767;23;20135;-81
2024/01/15 07:11:21;;;;;;;4.20;1.20;;;;;;;;;;6089387;23;20026;-83
2024/01/15 07:13:55;;;;;;;2.30;0.93;;;;;;;;;;6091537;23;20034;-82
2024/01/15 07:16:22;;;;;;;;;;;;;;;;;;6091852;23;20088;-80
2024/01/15 07:19:09;;;;;;;1.43;1.00;;;;;;;;;;6089949;23;19952;-80
2024/01/15 07:21:39;;;;;;;5.53;1.30;;;;;;;;;;6090826;23;20050;-81
2024/01/15 07:24:13;;;;;;;5.13;1.30;;;;;;;;;;6090609;23;20387;-80
2024/01/15 07:26:41;;;;;;;4.77;1.17;;;;;;;;;;6091106;23;20066;-80
2024/01/15 07:29:08;;;;;;;;;;;;;;;;;;6088370;23;20107;-82
2024/01/15 07:31:47;;;;;;;4.00;0.97;;;;;;;;;;6089032;23;20355;-82
2024/01/15 07:34:15;;;;;;;6.00;1.47;;;;;;;;;;6090630;23;20326;-82
2024/01/15 07:36:49;;;;;;;4.60;1.23;;;;;;;;;;6089106;23;20029;-82
2024/01/15 07:39:17;;;;;;;2.57;1.10;;;;;;;;;;6090897;23;20026;-82
2024/01/15 07:41:45;;;;;;;4.23;1.20;;;;;;;;;;6090528;23;20029;-82
2024/01/15 07:44:19;;;;;;;2.87;1.10;;;;;;;;;;6090552;23;20792;-82
2024/01/15 07:46:46;;;;;;;;;;;;;;;;;;6091045;23;20070;-82
2024/01/15 07:49:13;;;;;;;3.03;1.00;;;;;;;;;;6089670;23;20322;-82
2024/01/15 07:51:47;;;;;;;4.63;1.10;;;;;;;;;;6089945;23;20026;-83
2024/01/15 07:54:15;;;;;;;9.60;1.27;;;;;;;;;;6090713;23;20350;-82
2024/01/15 07:56:59;;;;;;;2.28;0.93;;;;;;;;;;6090401;23;20034;-81
2024/01/15 07:59:27;;;;;;;5.22;1.02;;;;;;;;;;6088454;23;20034;-81
2024/01/15 08:02:01;;;;;;;2.70;1.40;;;;;;;;;;6089044;23;20026;-81
2024/01/15 08:04:28;;;;;;;2.93;0.97;;;;;;;;;;6090217;23;20030;-82
2024/01/15 08:06:56;;;;;;;2.47;1.30;;;;;;;;;;6090023;23;20030;-81
2024/01/15 08:09:31;;;;;;;5.00;1.30;;;;;;;;;;6091041;23;20054;-81
2024/01/15 08:11:58;;;;;;;1.93;0.93;;;;;;;;;;6088692;23;20027;-81
2024/01/15 08:14:32;;;;;;;2.35;0.80;;;;;;;;;;6090374;23;20085;-81
2024/01/15 08:17:06;;;;;;;3.17;1.40;;;;;;;;;;6089516;23;20036;-81
2024/01/15 08:19:47;;;;;;;2.30;1.20;;;;;;;;;;6091070;23;20034;-81
2024/01/15 08:22:14;;;;;;;1.77;1.30;;;;;;;;;;6063050;23;20022;-82
2024/01/15 08:24:49;;;;;;;1.77;1.10;;;;;;;;;;6089839;23;20105;-81
2024/01/15 08:27:17;;;;;;;2.83;1.30;;;;;;;;;;6091598;23;20068;-81
2024/01/15 08:29:51;;;;;;;2.70;1.40;;;;;;;;;;6090504;23;20030;-82
2024/01/15 08:32:25;;;;;;;3.13;1.50;;;;;;;;;;6090974;23;20215;-81
2024/01/15 08:34:52;;;;;;;2.87;1.17;;;;;;;;;;6090920;23;20022;-81
2024/01/15 08:37:20;;;;;;;3.33;1.10;;;;;;;;;;6064391;23;20488;-81
2024/01/15 08:39:55;;;;;;;3.43;1.27;;;;;;;;;;6085186;23;20463;-81
2024/01/15 08:42:22;;;;;;;1.73;1.10;;;;;;;;;;6090167;23;20371;-81
2024/01/15 08:44:56;;;;;;;2.27;1.33;;;;;;;;;;6090024;23;20129;-81
2024/01/15 08:47:23;;;;;;;;;;;;;;;;;;6089704;23;20034;-81
2024/01/15 08:49:50;;;;;;;1.60;1.27;;;;;;;;;;6089263;23;20335;-82
2024/01/15 08:52:24;;;;;;;2.07;1.83;;;;;;;;;;6085322;23;20030;-81
2024/01/15 08:54:51;;;;;;;;;;;;;;;;;;6090038;23;20074;-81
2024/01/15 08:57:25;;;;;;;4.17;1.00;;;;;;;;;;6090520;23;19921;-81
2024/01/15 08:59:52;;;;;;;1.87;1.10;;;;;;;;;;6063661;23;20480;-81
2024/01/15 09:02:21;;;;;;;5.23;1.30;;;;;;;;;;6089288;23;20040;-82
2024/01/15 09:04:56;;;;;;;1.13;1.03;;;;;;;;;;6090708;23;20073;-82
2024/01/15 09:07:25;;;;;;;1.77;0.97;;;;;;;;;;6088822;23;20097;-82
2024/01/15 09:09:59;;;;;;;1.63;1.10;;;;;;;;;;6089173;23;20046;-82
2024/01/15 09:12:27;;;;;;;1.33;1.20;;;;;;;;;;6089067;23;20056;-81
2024/01/15 09:14:54;;;;;;;4.13;1.30;;;;;;;;;;6089325;23;20106;-81
2024/01/15 09:17:34;;;;;;;2.73;1.10;;;;;;;;;;6089711;23;20029;-81
2024/01/15 09:20:09;;;;;;;2.40;1.17;;;;;;;;;;6089357;23;20125;-81
2024/01/15 09:22:43;;;;;;;5.17;1.40;;;;;;;;;;6088060;23;20077;-82
2024/01/15 09:25:10;;;;;;;;;;;;;;;;;;6089469;23;20030;-81
2024/01/15 09:27:37;;;;;;;5.37;1.40;;;;;;;;;;6090095;23;19921;-80
2024/01/15 09:30:11;;;;;;;0.87;0.80;;;;;;;;;;6087931;23;20134;-81
2024/01/15 09:32:38;;;;;;;1.60;1.10;;;;;;;;;;6089588;23;20587;-81
2024/01/15 09:35:12;;;;;;;1.90;1.00;;;;;;;;;;6089442;23;20022;-80
2024/01/15 09:37:40;;;;;;;5.37;1.17;;;;;;;;;;6089632;23;20113;-81
2024/01/15 09:40:17;;;;;;;1.60;1.20;;;;;;;;;;6089365;23;20030;-81
2024/01/15 09:42:51;;;;;;;2.87;1.03;;;;;;;;;;6089832;23;20085;-81
2024/01/15 09:45:19;;;;;;;6.17;1.60;;;;;;;;;;6089112;23;20416;-81
2024/01/15 09:47:53;;;;;;;1.77;1.10;;;;;;;;;;6088614;23;20022;-81
2024/01/15 09:50:20;;;;;;;2.50;0.80;;;;;;;;;;6088925;23;20027;-81
2024/01/15 09:52:48;;;;;;;2.60;0.93;;;;;;;;;;6090439;23;20459;-80
2024/01/15 09:55:22;;;;;;;1.00;0.80;;;;;;;;;;6089482;23;20027;-81
2024/01/15 09:57:50;;;;;;;1.77;1.07;;;;;;;;;;6090260;23;20277;-81
2024/01/15 10:00:24;;;;;;;2.57;0.87;;;;;;;;;;6091448;23;20029;-81
2024/01/15 10:02:51;;;;;;;3.57;1.20;;;;;;;;;;6090294;23;20101;-81
2024/01/15 10:05:18;;;;;;;2.38;1.15;;;;;;;;;;6089027;23;20041;-82
2024/01/15 10:07:55;;;;;;;1.67;0.87;;;;;;;;;;6089917;23;20018;-81
2024/01/15 10:10:22;;;;;;;2.40;0.83;;;;;;;;;;6088413;23;20026;-81
2024/01/15 10:12:56;;;;;;;3.47;1.10;;;;;;;;;;6090655;23;20082;-80
2024/01/15 10:15:23;;;;;;;4.40;1.40;;;;;;;;;;6091537;23;20022;-81
2024/01/15 10:17:51;;;;;;;1.60;1.10;;;;;;;;;;6090512;23;20408;-80
2024/01/15 10:20:32;;;;;;;2.10;1.30;;;;;;;;;;6089567;23;20026;-81
2024/01/15 10:22:59;;;;;;;3.20;1.03;;;;;;;;;;6090797;23;20364;-80
2024/01/15 10:25:33;;;;;;;4.60;1.30;;;;;;;;;;6089957;23;20030;-80
2024/01/15 10:28:00;;;;;;;;;;;;;;;;;;6091814;23;20026;-80
2024/01/15 10:30:27;;;;;;;3.93;1.30;;;;;;;;;;6090487;23;19921;-81
2024/01/15 10:33:03;;;;;;;1.83;1.03;;;;;;;;;;6091622;23;20034;-81
2024/01/15 10:35:31;;;;;;;2.50;1.17;;;;;;;;;;6090725;23;20018;-80
2024/01/15 10:38:06;;;;;;;5.10;1.03;;;;;;;;;;6093334;23;20452;-80
2024/01/15 10:40:33;;;;;;;2.83;1.50;;;;;;;;;;6091781;23;20053;-80
2024/01/15 10:43:07;;;;;;;1.50;0.97;;;;;;;;;;6090910;23;20334;-80
2024/01/15 10:45:35;;;;;;;2.73;0.93;;;;;;;;;;6090658;23;20026;-81
2024/01/15 10:48:03;;;;;;;2.23;0.97;;;;;;;;;;6090848;23;20100;-80
2024/01/15 10:50:37;;;;;;;5.00;1.27;;;;;;;;;;6087891;23;20085;-81
2024/01/15 10:53:05;;;;;;;1.67;1.00;;;;;;;;;;6090479;23;20081;-80
2024/01/15 10:55:32;;;;;;;2.60;1.10;;;;;;;;;;6089684;23;20028;-80
2024/01/15 10:58:07;;;;;;;4.37;1.07;;;;;;;;;;6090423;23;20396;-80
2024/01/15 11:00:35;;;;;;;2.03;1.20;;;;;;;;;;6089840;23;20404;-80
2024/01/15 11:03:09;;;;;;;2.47;1.10;;;;;;;;;;6090105;23;20030;-81
2024/01/15 11:05:42;;;;;;;1.40;0.90;;;;;;;;;;6090614;23;20022;-80
2024/01/15 11:08:18;;;;;;;3.50;1.00;;;;;;;;;;6089336;23;20085;-80
2024/01/15 11:10:52;;;;;;;2.00;1.20;;;;;;;;;;6087638;23;20022;-81
2024/01/15 11:13:32;;;;;;;2.60;1.20;;;;;;;;;;6090423;23;20036;-80
2024/01/15 11:16:03;;;;;;;1.90;1.10;;;;;;;;;;6089856;23;20098;-80
2024/01/15 11:18:37;;;;;;;;;;;;;;;;;;6089256;23;20057;-80
2024/01/15 11:21:17;;;;;;;2.73;0.90;;;;;;;;;;6088561;23;20019;-80
2024/01/15 11:23:56;;;;;;;2.77;1.33;;;;;;;;;;6089642;23;20069;-80
2024/01/15 11:26:37;;;;;;;2.10;1.00;;;;;;;;;;6088851;23;20097;-80
2024/01/15 11:29:29;;;;;;;2.00;1.35;;;;;;;;;;6089339;23;20326;-80
2024/01/15 11:32:09;;;;;;;1.57;0.93;;;;;;;;;;6089075;23;20018;-80
2024/01/15 11:34:57;;;;;;;2.77;1.27;;;;;;;;;;6090745;23;20049;-80
2024/01/15 11:37:54;;;;;;;2.00;1.30;;;;;;;;;;6090211;23;20105;-81
2024/01/15 11:40:23;;;;;;;2.27;1.10;;;;;;;;;;6079605;23;20347;-80
2024/01/15 11:42:57;;;;;;;3.20;1.30;;;;;;;;;;6088986;23;20030;-80
2024/01/15 11:45:24;;;;;;;3.07;1.33;;;;;;;;;;6090549;23;20049;-80
2024/01/15 11:48:18;;;;;;;1.33;0.90;;;;;;;;;;6090693;23;20077;-80
2024/01/15 11:50:46;;;;;;;1.03;1.00;;;;;;;;;;6090722;23;20349;-80
2024/01/15 11:53:26;;;;;;;1.30;1.00;;;;;;;;;;6088814;23;20038;-80
2024/01/15 11:55:56;;;;;;;2.27;1.80;;;;;;;;;;6089581;23;20022;-80
2024/01/15 11:58:30;;;;;;;5.33;1.27;;;;;;;;;;6090546;23;20178;-79
2024/01/15 12:00:57;;;;;;;4.80;1.50;;;;;;;;;;6088754;23;20082;-80
2024/01/15 12:03:33;;;;;;;5.77;1.33;;;;;;;;;;6091533;23;20520;-80
2024/01/15 12:06:01;;;;;;;3.20;1.40;;;;;;;;;;6087702;23;20022;-80
2024/01/15 12:08:35;;;;;;;4.83;1.30;;;;;;;;;;6088075;23;20022;-80
2024/01/15 12:11:07;;;;;;;3.10;1.33;;;;;;;;;;6090568;23;20030;-80
2024/01/15 12:13:34;;;;;;;2.90;1.43;;;;;;;;;;6088808;23;20026;-81
2024/01/15 12:16:08;;;;;;;6.83;1.50;;;;;;;;;;6090048;23;20061;-80
2024/01/15 12:18:42;;;;;;;4.03;1.80;;;;;;;;;;6088381;23;20030;-80
2024/01/15 12:21:16;;;;;;;5.07;2.03;;;;;;;;;;6090520;23;20030;-80
2024/01/15 12:23:48;;;;;;;3.93;2.10;;;;;;;;;;6088929;23;20036;-80
2024/01/15 12:26:15;;;;;;;9.30;2.93;;;;;;;;;;6089201;23;20468;-80
2024/01/15 12:28:51;;;;;;;5.13;2.13;;;;;;;;;;6089789;23;20030;-81
2024/01/15 12:31:20;;;;;;;4.70;1.93;;;;;;;;;;6089398;23;20034;-81
2024/01/15 12:33:54;;;;;;;3.43;2.13;;;;;;;;;;6088525;23;20137;-80
2024/01/15 12:36:22;;;;;;;9.13;1.97;;;;;;;;;;6089725;23;20105;-80
2024/01/15 12:38:49;;;;;;;2.90;1.50;;;;;;;;;;6089455;23;20026;-80
2024/01/15 12:41:23;;;;;;;3.20;1.10;;;;;;;;;;6092289;23;20030;-80
2024/01/15 12:43:50;;;;;;;2.60;1.13;;;;;;;;;;6097225;23;20101;-80
2024/01/15 12:46:24;;;;;;;3.93;1.30;;;;;;;;;;6092123;23;20022;-80
2024/01/15 12:48:51;;;;;;;5.87;1.37;;;;;;;;;;6091174;23;20034;-79
2024/01/15 12:51:19;;;;;;;5.00;1.70;;;;;;;;;;6090804;23;20113;-81
2024/01/15 12:53:53;;;;;;;3.33;1.20;;;;;;;;;;6090708;23;20026;-81
2024/01/15 12:56:20;;;;;;;4.63;1.63;;;;;;;;;;6089072;23;20590;-80
2024/01/15 12:58:48;;;;;;;;;;;;;;;;;;6089784;23;20543;-80
2024/01/15 13:01:22;;;;;;;4.73;1.23;;;;;;;;;;6088494;23;19928;-80
2024/01/15 13:03:56;;;;;;;1.67;0.97;;;;;;;;;;6090687;23;20090;-81
2024/01/15 13:06:23;;;;;;;3.03;1.10;;;;;;;;;;6089364;23;20362;-80
2024/01/15 13:08:51;;;;;;;1.43;1.20;;;;;;;;;;6089405;23;20033;-80
2024/01/15 13:11:25;;;;;;;6.00;1.10;;;;;;;;;;6089791;23;20077;-81
2024/01/15 13:13:52;;;;;;;1.70;1.10;;;;;;;;;;6089177;23;20026;-80
2024/01/15 13:16:20;;;;;;;;;;;;;;;;;;6088221;23;20523;-80
2024/01/15 13:19:01;;;;;;;1.00;0.80;;;;;;;;;;6089964;23;20328;-80
2024/01/15 13:21:28;;;;;;;4.70;1.20;;;;;;;;;;6089520;23;20026;-80
2024/01/15 13:24:03;;;;;;;1.80;1.00;;;;;;;;;;6085228;23;20098;-81
2024/01/15 13:26:30;;;;;;;4.43;1.10;;;;;;;;;;6089206;23;20086;-80
2024/01/15 13:28:58;;;;;;;2.30;1.10;;;;;;;;;;6089293;23;20037;-80
2024/01/15 13:31:32;;;;;;;0.87;0.70;;;;;;;;;;6085992;23;20026;-81
2024/01/15 13:34:00;;;;;;;2.67;1.07;;;;;;;;;;6090080;23;20101;-81
2024/01/15 13:36:34;;;;;;;4.53;1.10;;;;;;;;;;6091013;23;20512;-80
2024/01/15 13:39:01;;;;;;;2.57;1.37;;;;;;;;;;6091118;23;20030;-80
2024/01/15 13:41:35;;;;;;;1.27;0.93;;;;;;;;;;6091108;23;20023;-80
2024/01/15 13:44:02;;;;;;;1.67;1.10;;;;;;;;;;6091713;23;20027;-80
2024/01/15 13:46:30;;;;;;;1.30;1.00;;;;;;;;;;6090520;23;20035;-80
2024/01/15 13:49:09;;;;;;;2.80;1.20;;;;;;;;;;6090592;23;20030;-80
2024/01/15 13:51:36;;;;;;;2.20;1.00;;;;;;;;;;6090522;23;20160;-80
2024/01/15 13:54:10;;;;;;;2.97;1.10;;;;;;;;;;6089387;23;20105;-80
2024/01/15 13:56:37;;;;;;;3.67;1.13;;;;;;;;;;6090315;23;20488;-80
2024/01/15 13:59:05;;;;;;;;;;;;;;;;;;6091457;23;20030;-81
2024/01/15 14:01:39;;;;;;;3.73;1.40;;;;;;;;;;6088638;23;19923;-80
2024/01/15 14:04:06;;;;;;;2.43;1.13;;;;;;;;;;6091256;23;20057;-80
2024/01/15 14:06:40;;;;;;;1.57;1.20;;;;;;;;;;6090960;23;20066;-80
2024/01/15 14:09:09;;;;;;;2.03;1.20;;;;;;;;;;6092482;23;20054;-81
2024/01/15 14:11:37;;;;;;;6.00;1.60;;;;;;;;;;6089545;23;20397;-80
2024/01/15 14:14:11;;;;;;;3.20;1.40;;;;;;;;;;6090637;23;20081;-80
2024/01/15 14:16:38;;;;;;;1.43;1.00;;;;;;;;;;6090983;23;20032;-80
2024/01/15 14:19:09;;;;;;;5.83;1.43;;;;;;;;;;6090090;23;20026;-80
2024/01/15 14:21:50;;;;;;;2.72;1.15;;;;;;;;;;6091132;23;20336;-80
2024/01/15 14:24:18;;;;;;;3.23;1.20;;;;;;;;;;6089434;23;20030;-80
2024/01/15 14:26:52;;;;;;;1.67;1.23;;;;;;;;;;6090799;23;20022;-80
2024/01/15 14:29:22;;;;;;;5.63;1.40;;;;;;;;;;6091247;23;20062;-80
2024/01/15 14:31:49;;;;;;;1.63;1.07;;;;;;;;;;6088395;23;20054;-80
2024/01/15 14:34:23;;;;;;;1.77;1.40;;;;;;;;;;6086080;23;20030;-80
2024/01/15 14:36:53;;;;;;;3.97;1.13;;;;;;;;;;6088488;23;20031;-80
2024/01/15 14:39:27;;;;;;;3.50;1.47;;;;;;;;;;6090304;23;20061;-78
2024/01/15 14:41:54;;;;;;;1.73;1.10;;;;;;;;;;6089714;23;20470;-77
2024/01/15 14:44:21;;;;;;;;;;;;;;;;;;6090244;23;20089;-78
2024/01/15 14:46:55;;;;;;;5.60;1.30;;;;;;;;;;6091021;23;20592;-78
2024/01/15 14:49:23;;;;;;;6.20;1.47;;;;;;;;;;6090934;23;20033;-78
2024/01/15 14:51:50;;;;;;;5.03;1.40;;;;;;;;;;6090384;23;20468;-79
2024/01/15 14:54:24;;;;;;;1.63;1.10;;;;;;;;;;6091423;23;20022;-77
2024/01/15 14:56:51;;;;;;;3.83;1.73;;;;;;;;;;6089495;23;20453;-78
2024/01/15 14:59:28;;;;;;;5.30;1.33;;;;;;;;;;6089812;23;20357;-78
2024/01/15 15:01:56;;;;;;;3.00;1.40;;;;;;;;;;6089130;23;20057;-78
2024/01/15 15:04:24;;;;;;;3.87;1.37;;;;;;;;;;6086047;23;20345;-77
2024/01/15 15:06:58;;;;;;;2.80;1.00;;;;;;;;;;6089512;23;20540;-80
2024/01/15 15:09:26;;;;;;;4.80;1.30;;;;;;;;;;6090057;23;20026;-80
2024/01/15 15:12:02;;;;;;;3.47;1.50;;;;;;;;;;6090520;23;20026;-81
2024/01/15 15:14:29;;;;;;;2.60;1.63;;;;;;;;;;6088630;23;20026;-80
2024/01/15 15:16:56;;;;;;;2.63;1.40;;;;;;;;;;6086372;23;20027;-79